Aérodrome :
LOGIN :

S'inscrire | Disclaimer

   EN    FR    IT 

 










Légende :    VFR   VFR Marginal   IFR   IFR Intensif   IFR Très Intensif
Visi : 
Plafond : 
>= 8 km
>= 3000ft
5 à 8 km
1000 à 3000 ft
1500m à 5 km
500 à 1000 ft
800 à 1500m
200 à 500 ft
< 800m
< 200 ft
Symboles :   Orages  Brouillard  Fortes neiges  Fortes précipitations  Vent > 20 kt
SIGMETs :   Divers  Orages  Givrage  Turbulence  Onde Orograph.  Cendres Volcan.






- Altitude de l'aérodrome : 607 ft
- Code IATA : BCM


LRBC - Bacău

DERNIER METAR :
  • 250830Z 36011KT 9999 BKN049 18/07 Q1021 R16/19//95

METARs EXPIRÉS :
  • 250800Z 35013KT 9999 BKN050 16/07 Q1021 R16/19//95
  • 250730Z 34011KT 9999 SCT050 15/08 Q1021 R16/19//95
  • 250700Z 35010KT 310V020 9999 SCT040 16/09 Q1021 R16/19//95
  • 250630Z 36007KT 330V030 9999 SCT040 15/09 Q1021 R16/19//95
  • 250600Z 01004KT 350V090 9999 FEW040 15/10 Q1021 R16/19//95

TAF TAF LRBC
Valide du 25 à 09h jusqu'au 25 à 18h UTC


250800Z 2509/2518 35012KT CAVOK
TEMPO 2512/2516 SCT040CB
PROB30
TEMPO 2513/2516 VRB16G26KT 5000 TSRA



MET'MAP, la Météo Aéronautique d'un coup d'oeil ! - Copyright ORBIFLY Décembre 2007 - Disclaimer

ORBIFLY MET'MAP TEAM :

Programmation & Développement : Alexandra Zaïnal
Sur une idée originale de : Baudouin d'Aumeries
Assistance à la programmation : Marc-Olivier Méhu
Soutien technique & logistique : Manuel Goepfert

Contact : metmap@orbifly.com




SOURCES & CREDITS :

   NOAA